Time;durP1;ratioP1;P1;durP2;ratioP2;P2;SDS_P1;SDS_P2;PMS_P1;PMS_P2;Temp;Humidity;BMP_temperature;BMP_pressure;BME280_temperature;BME280_humidity;BME280_pressure;Samples;Min_cycle;Max_cycle;Signal;HPM_P1;HPM_P2
2023/05/13 00:02:22;;;;;;;8.80;3.33;;;;;;;;;;4986179;28;20389;-76
2023/05/13 00:04:47;;;;;;;6.75;3.65;;;;;;;;;;4982940;28;20066;-75
2023/05/13 00:07:12;;;;;;;9.07;3.42;;;;;;;;;;4991877;28;20394;-75
2023/05/13 00:09:38;;;;;;;6.88;3.67;;;;;;;;;;4992514;28;20038;-76
2023/05/13 00:12:04;;;;;;;9.02;3.95;;;;;;;;;;4994594;28;20474;-75
2023/05/13 00:14:29;;;;;;;10.40;3.38;;;;;;;;;;4994374;28;20034;-76
2023/05/13 00:16:55;;;;;;;5.45;3.40;;;;;;;;;;4994246;28;20161;-75
2023/05/13 00:19:20;;;;;;;5.80;3.20;;;;;;;;;;4994393;28;20038;-76
2023/05/13 00:21:46;;;;;;;7.72;4.18;;;;;;;;;;4994109;28;20042;-75
2023/05/13 00:24:11;;;;;;;6.57;3.83;;;;;;;;;;4993860;28;20041;-75
2023/05/13 00:26:36;;;;;;;8.80;3.97;;;;;;;;;;4993104;28;20034;-76
2023/05/13 00:29:02;;;;;;;7.50;3.22;;;;;;;;;;4994100;28;20116;-76
2023/05/13 00:31:28;;;;;;;8.60;3.72;;;;;;;;;;4992945;28;20475;-76
2023/05/13 00:33:53;;;;;;;9.15;3.80;;;;;;;;;;4994190;28;20113;-76
2023/05/13 00:36:18;;;;;;;8.32;3.63;;;;;;;;;;4993932;28;20371;-75
2023/05/13 00:38:44;;;;;;;7.47;3.88;;;;;;;;;;4993913;28;20045;-76
2023/05/13 00:41:10;;;;;;;5.45;3.65;;;;;;;;;;4980713;28;20034;-76
2023/05/13 00:43:36;;;;;;;9.77;4.30;;;;;;;;;;4980566;28;20053;-76
2023/05/13 00:46:01;;;;;;;7.38;3.22;;;;;;;;;;4986090;28;20382;-76
2023/05/13 00:48:27;;;;;;;8.15;3.97;;;;;;;;;;4976656;28;20039;-76
2023/05/13 00:50:52;;;;;;;8.32;3.90;;;;;;;;;;4982907;28;20088;-76
2023/05/13 00:53:17;;;;;;;9.05;4.25;;;;;;;;;;4983536;28;20121;-75
2023/05/13 00:55:44;;;;;;;6.75;3.88;;;;;;;;;;4990840;28;20049;-76
2023/05/13 00:58:10;;;;;;;7.85;4.07;;;;;;;;;;5014852;28;20051;-76
2023/05/13 01:00:42;;;;;;;6.47;3.55;;;;;;;;;;5008101;28;20026;-78
2023/05/13 01:03:11;;;;;;;6.40;3.85;;;;;;;;;;4982843;28;20035;-78
2023/05/13 01:05:53;;;;;;;5.63;3.55;;;;;;;;;;4981997;28;20034;-78
2023/05/13 01:08:30;;;;;;;12.20;3.78;;;;;;;;;;4987657;28;20121;-78
2023/05/13 01:11:18;;;;;;;7.80;3.58;;;;;;;;;;4990509;28;20380;-77
2023/05/13 01:13:46;;;;;;;5.28;3.53;;;;;;;;;;4993578;28;20035;-77
2023/05/13 01:16:21;;;;;;;4.95;3.33;;;;;;;;;;4992595;28;20038;-77
2023/05/13 01:18:56;;;;;;;6.75;4.05;;;;;;;;;;4986485;28;20030;-77
2023/05/13 01:21:25;;;;;;;8.27;3.33;;;;;;;;;;4978102;28;20035;-77
2023/05/13 01:23:51;;;;;;;6.85;3.67;;;;;;;;;;4993501;28;20459;-77
2023/05/13 01:26:17;;;;;;;8.43;3.80;;;;;;;;;;4993684;28;20077;-77
2023/05/13 01:28:42;;;;;;;4.57;3.00;;;;;;;;;;4993562;28;20116;-77
2023/05/13 01:31:09;;;;;;;6.03;3.67;;;;;;;;;;4989317;28;20035;-77
2023/05/13 01:33:35;;;;;;;6.80;3.92;;;;;;;;;;4979509;28;20062;-77
2023/05/13 01:36:01;;;;;;;8.40;4.40;;;;;;;;;;4984187;28;20066;-77
2023/05/13 01:38:27;;;;;;;8.20;3.97;;;;;;;;;;4982993;28;20039;-77
2023/05/13 01:40:53;;;;;;;9.18;3.78;;;;;;;;;;4979113;28;20046;-77
2023/05/13 01:43:18;;;;;;;5.10;3.17;;;;;;;;;;4973748;28;20094;-77
2023/05/13 01:45:44;;;;;;;8.85;4.53;;;;;;;;;;4981355;28;20506;-77
2023/05/13 01:48:09;;;;;;;4.65;3.17;;;;;;;;;;4982289;28;20077;-77
2023/05/13 01:50:35;;;;;;;6.20;3.65;;;;;;;;;;4982459;28;20042;-77
2023/05/13 01:53:00;;;;;;;5.97;3.83;;;;;;;;;;4988795;28;20038;-77
2023/05/13 01:55:26;;;;;;;9.27;4.07;;;;;;;;;;4991510;28;20046;-77
2023/05/13 01:57:51;;;;;;;7.38;4.20;;;;;;;;;;4991013;28;20054;-77
2023/05/13 02:00:17;;;;;;;6.90;3.97;;;;;;;;;;4980736;28;20534;-77
2023/05/13 02:02:43;;;;;;;8.75;3.63;;;;;;;;;;4994953;28;20483;-77
2023/05/13 02:05:08;;;;;;;9.63;3.70;;;;;;;;;;4995050;28;20105;-77
2023/05/13 02:07:34;;;;;;;6.85;4.38;;;;;;;;;;4996585;28;20121;-77
2023/05/13 02:09:59;;;;;;;7.90;3.33;;;;;;;;;;4995643;28;20065;-77
2023/05/13 02:12:26;;;;;;;8.45;3.83;;;;;;;;;;4996484;28;20046;-77
2023/05/13 02:14:54;;;;;;;7.38;4.03;;;;;;;;;;4994785;28;20038;-77
2023/05/13 02:17:20;;;;;;;8.40;3.80;;;;;;;;;;4996641;28;20050;-77
2023/05/13 02:19:46;;;;;;;7.00;4.07;;;;;;;;;;4996377;28;20041;-78
2023/05/13 02:22:11;;;;;;;6.28;3.53;;;;;;;;;;4996169;28;20030;-77
2023/05/13 02:24:39;;;;;;;7.65;3.60;;;;;;;;;;4996504;28;20050;-77
2023/05/13 02:27:06;;;;;;;7.18;3.53;;;;;;;;;;4995087;28;20039;-77
2023/05/13 02:29:31;;;;;;;3.83;2.60;;;;;;;;;;4994443;28;20062;-77
2023/05/13 02:31:57;;;;;;;7.25;3.22;;;;;;;;;;4995165;28;20076;-77
2023/05/13 02:34:22;;;;;;;9.05;3.60;;;;;;;;;;4996308;28;20423;-77
2023/05/13 02:36:47;;;;;;;7.30;4.05;;;;;;;;;;4996074;28;20023;-77
2023/05/13 02:39:13;;;;;;;7.40;4.28;;;;;;;;;;4995996;28;20046;-77
2023/05/13 02:41:38;;;;;;;9.82;4.22;;;;;;;;;;4996007;28;20030;-78
2023/05/13 02:44:04;;;;;;;8.30;3.38;;;;;;;;;;4996068;28;20367;-76
2023/05/13 02:46:30;;;;;;;12.35;4.65;;;;;;;;;;4994688;28;20390;-77
2023/05/13 02:48:55;;;;;;;6.05;3.88;;;;;;;;;;4984879;28;20482;-77
2023/05/13 02:51:20;;;;;;;8.23;4.75;;;;;;;;;;4978583;28;20023;-77
2023/05/13 02:53:46;;;;;;;7.80;3.90;;;;;;;;;;4980829;28;20074;-77
2023/05/13 02:56:15;;;;;;;6.75;3.70;;;;;;;;;;4978255;28;20053;-77
2023/05/13 02:58:40;;;;;;;5.90;3.70;;;;;;;;;;4995898;28;20522;-77
2023/05/13 03:01:06;;;;;;;9.10;4.05;;;;;;;;;;4995239;28;20113;-77
2023/05/13 03:03:31;;;;;;;7.53;4.22;;;;;;;;;;4994636;28;20049;-77
2023/05/13 03:05:56;;;;;;;8.45;4.20;;;;;;;;;;4990792;28;20368;-77
2023/05/13 03:08:22;;;;;;;8.98;4.50;;;;;;;;;;4993986;28;20047;-76
2023/05/13 03:10:47;;;;;;;8.93;4.25;;;;;;;;;;4988083;28;20042;-76
2023/05/13 03:13:13;;;;;;;9.98;4.20;;;;;;;;;;4971593;28;20039;-76
2023/05/13 03:15:38;;;;;;;8.18;4.18;;;;;;;;;;4994845;28;20544;-76
2023/05/13 03:18:03;;;;;;;7.38;4.25;;;;;;;;;;4982760;28;20046;-76
2023/05/13 03:20:29;;;;;;;8.40;4.00;;;;;;;;;;4978097;28;20023;-76
2023/05/13 03:22:55;;;;;;;5.40;3.47;;;;;;;;;;4991564;28;20076;-76
2023/05/13 03:25:20;;;;;;;5.95;3.42;;;;;;;;;;4985861;28;20081;-76
2023/05/13 03:27:46;;;;;;;8.38;3.97;;;;;;;;;;4989723;28;20061;-76
2023/05/13 03:30:12;;;;;;;10.25;4.00;;;;;;;;;;4982150;28;20050;-76
2023/05/13 03:32:38;;;;;;;8.88;3.60;;;;;;;;;;4989770;28;20070;-76
2023/05/13 03:35:03;;;;;;;6.10;3.60;;;;;;;;;;4990220;28;20030;-76
2023/05/13 03:37:29;;;;;;;11.30;4.63;;;;;;;;;;4993122;28;20041;-76
2023/05/13 03:39:54;;;;;;;7.00;3.50;;;;;;;;;;4993963;28;20398;-76
2023/05/13 03:42:19;;;;;;;7.85;4.35;;;;;;;;;;4994947;28;20471;-76
2023/05/13 03:44:45;;;;;;;11.23;3.92;;;;;;;;;;4994785;28;20405;-76
2023/05/13 03:47:10;;;;;;;11.20;4.07;;;;;;;;;;4994839;28;20043;-76
2023/05/13 03:49:36;;;;;;;8.55;4.95;;;;;;;;;;4986846;28;20065;-76
2023/05/13 03:52:01;;;;;;;10.27;3.92;;;;;;;;;;4986698;28;20042;-76
2023/05/13 03:54:27;;;;;;;9.50;4.93;;;;;;;;;;4993504;28;20038;-76
2023/05/13 03:56:52;;;;;;;8.25;4.15;;;;;;;;;;4980532;28;20042;-77
2023/05/13 03:59:18;;;;;;;6.65;4.35;;;;;;;;;;4977450;28;20097;-77
2023/05/13 04:01:43;;;;;;;10.70;4.32;;;;;;;;;;4987608;28;20038;-76
2023/05/13 04:04:08;;;;;;;5.90;4.00;;;;;;;;;;4990775;28;20026;-76
2023/05/13 04:06:34;;;;;;;6.57;4.00;;;;;;;;;;4992660;28;20065;-76
2023/05/13 04:09:00;;;;;;;8.93;3.92;;;;;;;;;;4993116;28;20073;-76
2023/05/13 04:11:26;;;;;;;7.78;3.90;;;;;;;;;;4994533;28;20087;-76
2023/05/13 04:13:51;;;;;;;9.60;5.55;;;;;;;;;;4994294;28;20127;-76
2023/05/13 04:16:17;;;;;;;9.68;5.80;;;;;;;;;;4992955;28;20034;-77
2023/05/13 04:18:42;;;;;;;7.72;4.43;;;;;;;;;;4994195;28;20037;-76
2023/05/13 04:21:08;;;;;;;9.00;4.70;;;;;;;;;;4994371;28;20042;-76
2023/05/13 04:23:34;;;;;;;7.20;4.20;;;;;;;;;;4993762;28;20172;-76
2023/05/13 04:25:59;;;;;;;6.95;3.85;;;;;;;;;;4994349;28;20097;-76
2023/05/13 04:28:25;;;;;;;8.88;4.78;;;;;;;;;;4994038;28;20034;-76
2023/05/13 04:30:51;;;;;;;6.28;4.20;;;;;;;;;;4992926;28;20046;-76
2023/05/13 04:33:16;;;;;;;6.32;4.20;;;;;;;;;;4994055;28;20054;-76
2023/05/13 04:35:42;;;;;;;10.52;4.82;;;;;;;;;;4989018;28;20049;-76
2023/05/13 04:38:08;;;;;;;9.13;4.60;;;;;;;;;;4985184;28;20061;-77
2023/05/13 04:40:33;;;;;;;8.73;4.30;;;;;;;;;;4994123;28;20034;-76
2023/05/13 04:42:59;;;;;;;7.93;4.95;;;;;;;;;;4993985;28;20101;-76
2023/05/13 04:45:24;;;;;;;7.80;4.78;;;;;;;;;;4993936;28;20041;-77
2023/05/13 04:47:49;;;;;;;14.95;4.90;;;;;;;;;;4982309;28;20468;-77
2023/05/13 04:50:15;;;;;;;9.95;5.15;;;;;;;;;;4979266;28;20051;-77
2023/05/13 04:52:41;;;;;;;10.65;5.18;;;;;;;;;;4983281;28;20098;-76
2023/05/13 04:55:08;;;;;;;8.10;4.80;;;;;;;;;;4977010;28;20047;-77
2023/05/13 04:57:33;;;;;;;10.65;4.90;;;;;;;;;;5014863;28;20514;-76
2023/05/13 04:59:59;;;;;;;7.07;4.00;;;;;;;;;;4982488;28;20073;-76
2023/05/13 05:02:24;;;;;;;8.88;4.65;;;;;;;;;;4992579;28;20031;-76
2023/05/13 05:04:49;;;;;;;8.50;4.75;;;;;;;;;;4979361;28;20173;-76
2023/05/13 05:07:15;;;;;;;8.27;4.60;;;;;;;;;;4986585;28;20045;-76
2023/05/13 05:09:40;;;;;;;8.23;4.65;;;;;;;;;;4979582;28;20106;-76
2023/05/13 05:12:06;;;;;;;8.02;4.53;;;;;;;;;;4978769;28;20049;-76
2023/05/13 05:14:31;;;;;;;9.38;4.82;;;;;;;;;;4976558;28;20039;-76
2023/05/13 05:16:57;;;;;;;11.63;4.63;;;;;;;;;;4980738;28;20037;-76
2023/05/13 05:19:22;;;;;;;8.05;4.70;;;;;;;;;;4981046;28;20034;-76
2023/05/13 05:21:52;;;;;;;8.93;4.72;;;;;;;;;;4993592;28;20042;-76
2023/05/13 05:24:18;;;;;;;8.00;4.60;;;;;;;;;;4993555;28;20042;-77
2023/05/13 05:26:43;;;;;;;10.13;4.63;;;;;;;;;;4993637;28;20100;-76
2023/05/13 05:29:08;;;;;;;8.57;5.18;;;;;;;;;;4993605;28;20386;-77
2023/05/13 05:31:34;;;;;;;7.63;4.40;;;;;;;;;;4993364;28;20030;-76
2023/05/13 05:34:00;;;;;;;10.35;4.60;;;;;;;;;;4992488;28;20479;-76
2023/05/13 05:36:27;;;;;;;5.93;3.65;;;;;;;;;;4996415;28;20446;-77
2023/05/13 05:38:52;;;;;;;5.65;4.13;;;;;;;;;;4996260;28;20057;-77
2023/05/13 05:41:18;;;;;;;8.98;4.35;;;;;;;;;;4992859;28;20506;-77
2023/05/13 05:43:43;;;;;;;9.43;4.38;;;;;;;;;;4979163;28;20043;-77
2023/05/13 05:46:09;;;;;;;8.88;4.50;;;;;;;;;;4981833;28;20037;-76
2023/05/13 05:48:34;;;;;;;6.75;4.20;;;;;;;;;;4983504;28;20042;-77
2023/05/13 05:51:00;;;;;;;10.38;4.07;;;;;;;;;;4981886;28;20126;-76
2023/05/13 05:53:25;;;;;;;8.45;4.60;;;;;;;;;;4979957;28;20042;-77
2023/05/13 05:55:51;;;;;;;13.45;5.30;;;;;;;;;;4981156;28;20117;-76
2023/05/13 05:58:16;;;;;;;8.68;4.38;;;;;;;;;;4997060;28;20046;-76
2023/05/13 06:00:42;;;;;;;9.05;4.10;;;;;;;;;;4996815;28;20034;-77
2023/05/13 06:03:07;;;;;;;7.05;4.10;;;;;;;;;;4996657;28;20053;-76
2023/05/13 06:05:32;;;;;;;10.18;4.88;;;;;;;;;;4991642;28;20061;-76
2023/05/13 06:07:58;;;;;;;8.90;4.65;;;;;;;;;;4996906;28;20042;-76
2023/05/13 06:10:23;;;;;;;7.75;3.85;;;;;;;;;;4989679;28;20054;-76
2023/05/13 06:12:50;;;;;;;9.18;4.38;;;;;;;;;;4987088;28;20046;-76
2023/05/13 06:15:15;;;;;;;6.38;4.20;;;;;;;;;;4982831;28;20080;-77
2023/05/13 06:17:40;;;;;;;6.13;4.22;;;;;;;;;;4996127;28;20442;-76
2023/05/13 06:20:06;;;;;;;7.43;3.92;;;;;;;;;;4979314;28;20046;-77
2023/05/13 06:22:32;;;;;;;8.05;4.38;;;;;;;;;;4989146;28;20181;-77
2023/05/13 06:24:57;;;;;;;5.18;3.63;;;;;;;;;;4995236;28;20030;-76
2023/05/13 06:27:23;;;;;;;6.05;3.03;;;;;;;;;;4996432;28;20050;-77
2023/05/13 06:29:48;;;;;;;7.15;3.47;;;;;;;;;;4995018;28;20526;-77
2023/05/13 06:32:14;;;;;;;6.55;3.92;;;;;;;;;;4996370;28;20046;-77
2023/05/13 06:34:44;;;;;;;6.90;3.90;;;;;;;;;;4996110;28;20042;-76
2023/05/13 06:37:10;;;;;;;5.68;2.67;;;;;;;;;;4996262;28;20027;-77
2023/05/13 06:39:36;;;;;;;6.25;3.67;;;;;;;;;;4986455;28;20039;-76
2023/05/13 06:42:02;;;;;;;5.32;3.17;;;;;;;;;;4977763;28;20149;-76
2023/05/13 06:44:28;;;;;;;6.25;3.60;;;;;;;;;;4977553;28;20062;-76
2023/05/13 06:46:53;;;;;;;5.82;3.10;;;;;;;;;;4988468;28;20115;-76
2023/05/13 06:49:19;;;;;;;6.57;3.58;;;;;;;;;;4986086;28;20049;-77
2023/05/13 06:51:44;;;;;;;8.30;3.42;;;;;;;;;;4990591;28;20535;-76
2023/05/13 06:54:09;;;;;;;9.13;4.15;;;;;;;;;;4986829;28;20122;-77
2023/05/13 06:56:35;;;;;;;6.38;3.80;;;;;;;;;;4988533;28;20043;-76
2023/05/13 06:59:00;;;;;;;5.72;3.55;;;;;;;;;;4982481;28;20043;-76
2023/05/13 07:01:29;;;;;;;8.80;4.38;;;;;;;;;;4983435;28;20050;-76
2023/05/13 07:03:54;;;;;;;11.75;4.47;;;;;;;;;;4995811;28;20121;-77
2023/05/13 07:06:20;;;;;;;7.65;3.63;;;;;;;;;;4995174;28;20073;-77
2023/05/13 07:08:45;;;;;;;7.47;3.55;;;;;;;;;;4983539;28;20557;-76
2023/05/13 07:11:10;;;;;;;5.35;3.50;;;;;;;;;;4980054;28;20125;-76
2023/05/13 07:13:36;;;;;;;7.50;4.18;;;;;;;;;;4988943;28;20041;-76
2023/05/13 07:16:01;;;;;;;5.88;3.60;;;;;;;;;;4984842;28;20043;-76
2023/05/13 07:18:28;;;;;;;6.13;3.47;;;;;;;;;;4986281;28;20038;-76
2023/05/13 07:20:55;;;;;;;6.75;4.10;;;;;;;;;;4977741;28;20081;-76
2023/05/13 07:23:20;;;;;;;7.82;4.35;;;;;;;;;;4987748;28;20080;-76
2023/05/13 07:25:46;;;;;;;6.05;3.63;;;;;;;;;;4982120;28;20062;-76
2023/05/13 07:28:11;;;;;;;8.00;4.72;;;;;;;;;;4993216;28;20057;-76
2023/05/13 07:30:40;;;;;;;10.63;5.28;;;;;;;;;;4993101;28;20117;-76
2023/05/13 07:33:05;;;;;;;7.72;4.85;;;;;;;;;;4995008;28;20042;-76
2023/05/13 07:35:31;;;;;;;8.48;5.10;;;;;;;;;;4995003;28;20088;-76
2023/05/13 07:37:56;;;;;;;8.52;4.57;;;;;;;;;;4995195;28;20042;-76
2023/05/13 07:40:22;;;;;;;9.25;5.07;;;;;;;;;;4994877;28;20062;-76
2023/05/13 07:42:47;;;;;;;6.50;3.90;;;;;;;;;;4994941;28;20485;-76
2023/05/13 07:45:13;;;;;;;9.50;4.32;;;;;;;;;;4994808;28;20049;-76
2023/05/13 07:47:38;;;;;;;9.48;5.03;;;;;;;;;;4995003;28;20438;-76
2023/05/13 07:50:04;;;;;;;13.65;4.80;;;;;;;;;;4994790;28;20031;-76
2023/05/13 07:52:30;;;;;;;8.80;5.07;;;;;;;;;;4994455;28;20045;-76
2023/05/13 07:54:56;;;;;;;9.80;4.30;;;;;;;;;;4991257;28;20046;-76
2023/05/13 07:57:21;;;;;;;8.75;4.38;;;;;;;;;;4994157;28;20141;-76
2023/05/13 07:59:47;;;;;;;7.97;4.57;;;;;;;;;;4994571;28;20052;-76
2023/05/13 08:02:13;;;;;;;7.28;4.50;;;;;;;;;;4991745;28;20093;-76
2023/05/13 08:04:38;;;;;;;7.20;4.35;;;;;;;;;;4986922;28;20030;-76
2023/05/13 08:07:04;;;;;;;8.52;4.47;;;;;;;;;;4984061;28;20038;-76
2023/05/13 08:09:29;;;;;;;6.95;4.38;;;;;;;;;;4992750;28;20042;-76
2023/05/13 08:11:55;;;;;;;7.82;4.30;;;;;;;;;;4994327;28;20056;-76
2023/05/13 08:14:20;;;;;;;10.68;4.75;;;;;;;;;;4994814;28;20038;-77
2023/05/13 08:16:46;;;;;;;9.35;3.83;;;;;;;;;;4980698;28;20453;-76
2023/05/13 08:19:14;;;;;;;8.20;5.43;;;;;;;;;;4982011;28;20077;-76
2023/05/13 08:21:39;;;;;;;5.95;4.00;;;;;;;;;;4985843;28;20042;-76
2023/05/13 08:24:05;;;;;;;5.90;4.22;;;;;;;;;;4994101;28;20101;-76
2023/05/13 08:26:31;;;;;;;7.88;4.07;;;;;;;;;;4992242;28;20467;-76
2023/05/13 08:28:57;;;;;;;9.60;4.78;;;;;;;;;;4993902;28;20129;-76
2023/05/13 08:31:24;;;;;;;7.65;4.65;;;;;;;;;;4993070;28;20121;-76
2023/05/13 08:33:50;;;;;;;6.00;4.00;;;;;;;;;;4994006;28;20052;-76
2023/05/13 08:36:16;;;;;;;8.43;4.47;;;;;;;;;;4994178;28;20030;-77
2023/05/13 08:38:42;;;;;;;8.60;4.00;;;;;;;;;;4991758;28;20376;-76
2023/05/13 08:41:09;;;;;;;5.70;2.95;;;;;;;;;;4975203;28;20035;-76
2023/05/13 08:43:37;;;;;;;10.40;4.00;;;;;;;;;;4986602;28;20108;-76
2023/05/13 08:46:03;;;;;;;8.02;4.50;;;;;;;;;;4992815;28;20042;-76
2023/05/13 08:48:29;;;;;;;8.30;4.18;;;;;;;;;;4992803;28;20030;-77
2023/05/13 08:50:55;;;;;;;8.52;4.85;;;;;;;;;;4992638;28;20125;-76
2023/05/13 08:53:21;;;;;;;7.30;4.82;;;;;;;;;;4992736;28;20165;-76
2023/05/13 08:55:47;;;;;;;7.53;4.80;;;;;;;;;;4992575;28;20113;-76
2023/05/13 08:58:12;;;;;;;9.48;5.78;;;;;;;;;;4993850;28;20602;-76
2023/05/13 09:00:38;;;;;;;9.40;4.93;;;;;;;;;;4992520;28;20035;-76
2023/05/13 09:03:03;;;;;;;9.82;4.90;;;;;;;;;;4989505;28;20153;-76
2023/05/13 09:05:30;;;;;;;10.82;5.07;;;;;;;;;;4989990;28;20116;-76
2023/05/13 09:07:56;;;;;;;7.63;4.88;;;;;;;;;;4985988;28;20038;-77
2023/05/13 09:10:21;;;;;;;6.97;4.47;;;;;;;;;;4989674;28;20033;-77
2023/05/13 09:12:48;;;;;;;7.25;4.65;;;;;;;;;;4997775;28;20051;-76
2023/05/13 09:15:16;;;;;;;7.18;4.80;;;;;;;;;;4997674;28;20045;-77
2023/05/13 09:17:44;;;;;;;7.95;5.05;;;;;;;;;;4993589;28;20102;-76
2023/05/13 09:20:11;;;;;;;7.05;5.10;;;;;;;;;;4980497;28;20045;-76
2023/05/13 09:22:54;;;;;;;8.52;5.07;;;;;;;;;;4981546;28;20031;-76
2023/05/13 09:25:22;;;;;;;9.07;5.13;;;;;;;;;;4983864;28;20054;-77
2023/05/13 09:27:59;;;;;;;9.35;5.20;;;;;;;;;;4984889;28;20038;-77
2023/05/13 09:30:26;;;;;;;8.90;4.88;;;;;;;;;;4991720;28;20042;-76
2023/05/13 09:33:10;;;;;;;8.73;5.15;;;;;;;;;;4994803;28;20117;-76
2023/05/13 09:35:37;;;;;;;11.80;5.43;;;;;;;;;;4997181;28;20128;-76
2023/05/13 09:38:17;;;;;;;8.68;5.03;;;;;;;;;;4996503;28;20487;-76
2023/05/13 09:40:53;;;;;;;5.78;3.70;;;;;;;;;;4988270;28;20112;-77
2023/05/13 09:43:23;;;;;;;8.63;4.22;;;;;;;;;;4988979;28;20081;-76
2023/05/13 09:45:53;;;;;;;9.10;4.32;;;;;;;;;;4984350;28;20113;-77
2023/05/13 09:48:20;;;;;;;9.57;5.85;;;;;;;;;;4995598;28;20498;-76
2023/05/13 09:50:48;;;;;;;8.57;4.55;;;;;;;;;;4984735;28;20045;-76
2023/05/13 09:53:14;;;;;;;10.30;4.82;;;;;;;;;;4993936;28;20022;-76
2023/05/13 09:55:45;;;;;;;9.95;5.30;;;;;;;;;;4989511;28;20037;-76
2023/05/13 09:58:11;;;;;;;13.68;4.82;;;;;;;;;;4982610;28;20062;-77
2023/05/13 10:00:39;;;;;;;7.50;4.40;;;;;;;;;;5018148;28;20058;-77
2023/05/13 10:03:04;;;;;;;10.48;5.15;;;;;;;;;;4987509;28;20034;-77
2023/05/13 10:05:31;;;;;;;8.05;5.20;;;;;;;;;;4993984;28;20505;-77
2023/05/13 10:07:56;;;;;;;8.25;4.47;;;;;;;;;;4995423;28;20034;-77
2023/05/13 10:10:22;;;;;;;9.23;5.35;;;;;;;;;;4983603;28;20026;-77
2023/05/13 10:12:48;;;;;;;8.57;4.93;;;;;;;;;;4976606;28;20114;-77
2023/05/13 10:15:14;;;;;;;9.07;4.93;;;;;;;;;;4988984;28;20095;-77
2023/05/13 10:17:40;;;;;;;8.07;4.72;;;;;;;;;;4995393;28;20062;-77
2023/05/13 10:20:05;;;;;;;6.88;4.10;;;;;;;;;;4995154;28;20911;-77
2023/05/13 10:22:33;;;;;;;7.45;4.60;;;;;;;;;;4996010;28;20031;-77
2023/05/13 10:25:00;;;;;;;8.43;4.68;;;;;;;;;;4996426;28;20034;-77
2023/05/13 10:27:29;;;;;;;7.15;4.03;;;;;;;;;;4996502;28;20038;-77
2023/05/13 10:29:56;;;;;;;6.25;3.95;;;;;;;;;;4996337;28;20049;-77
2023/05/13 10:32:23;;;;;;;7.43;4.53;;;;;;;;;;4996308;28;20027;-77
2023/05/13 10:34:52;;;;;;;7.07;4.95;;;;;;;;;;4995043;28;20538;-77
2023/05/13 10:37:23;;;;;;;7.18;5.10;;;;;;;;;;4995124;28;20038;-77
2023/05/13 10:40:09;;;;;;;9.77;4.90;;;;;;;;;;4988770;28;20050;-76
2023/05/13 10:42:46;;;;;;;8.25;3.97;;;;;;;;;;4992228;28;20038;-76
2023/05/13 10:45:11;;;;;;;7.35;5.10;;;;;;;;;;4994949;28;20129;-76
2023/05/13 10:47:37;;;;;;;9.13;5.05;;;;;;;;;;4991240;28;20489;-77
2023/05/13 10:50:27;;;;;;;9.25;6.22;;;;;;;;;;4978687;28;20093;-76
2023/05/13 10:52:58;;;;;;;11.00;6.75;;;;;;;;;;4982505;28;20038;-77
2023/05/13 10:55:25;;;;;;;9.13;5.80;;;;;;;;;;4991647;28;20038;-76
2023/05/13 10:58:07;;;;;;;8.07;5.82;;;;;;;;;;4995538;28;20042;-76
2023/05/13 11:00:33;;;;;;;13.10;5.60;;;;;;;;;;4995303;28;20038;-76
2023/05/13 11:03:26;;;;;;;12.23;5.60;;;;;;;;;;4990015;28;20077;-76
2023/05/13 11:06:03;;;;;;;6.18;3.78;;;;;;;;;;4993754;28;20178;-76
2023/05/13 11:08:36;;;;;;;10.73;5.05;;;;;;;;;;4994447;28;20038;-77
2023/05/13 11:11:01;;;;;;;8.23;5.63;;;;;;;;;;4994278;28;20070;-75
2023/05/13 11:13:36;;;;;;;7.07;4.40;;;;;;;;;;4995652;28;20505;-76
2023/05/13 11:16:05;;;;;;;7.90;5.13;;;;;;;;;;4992669;28;20375;-76
2023/05/13 11:18:33;;;;;;;8.60;5.45;;;;;;;;;;4978969;28;20031;-76
2023/05/13 11:21:06;;;;;;;8.90;5.82;;;;;;;;;;4981029;28;20030;-76
2023/05/13 11:23:56;;;;;;;7.97;5.18;;;;;;;;;;4975683;28;20499;-76
2023/05/13 11:26:22;;;;;;;8.40;5.28;;;;;;;;;;4989911;28;20030;-76
2023/05/13 11:29:03;;;;;;;8.30;5.72;;;;;;;;;;4990666;28;20046;-75
2023/05/13 11:31:42;;;;;;;9.25;4.88;;;;;;;;;;4981744;28;20038;-76
2023/05/13 11:34:09;;;;;;;8.88;5.72;;;;;;;;;;4970846;28;20073;-75
2023/05/13 11:36:40;;;;;;;10.60;6.70;;;;;;;;;;4993470;28;20489;-75
2023/05/13 11:39:16;;;;;;;9.15;5.50;;;;;;;;;;4993892;28;20030;-76
2023/05/13 11:41:43;;;;;;;8.10;5.70;;;;;;;;;;4981222;28;20046;-76
2023/05/13 11:44:11;;;;;;;14.05;6.47;;;;;;;;;;4985417;28;20043;-75
2023/05/13 11:46:36;;;;;;;9.10;6.00;;;;;;;;;;4988096;28;20081;-75
2023/05/13 11:49:02;;;;;;;9.18;5.47;;;;;;;;;;4994889;28;20038;-75
2023/05/13 11:51:27;;;;;;;16.67;6.00;;;;;;;;;;4992564;28;20046;-76
2023/05/13 11:54:02;;;;;;;9.45;5.57;;;;;;;;;;4994819;28;20070;-76
2023/05/13 11:56:28;;;;;;;8.73;6.20;;;;;;;;;;4994364;28;20501;-75
2023/05/13 11:58:54;;;;;;;6.90;5.07;;;;;;;;;;4994841;28;20089;-75
2023/05/13 12:01:20;;;;;;;8.93;5.85;;;;;;;;;;4993071;28;20501;-76
2023/05/13 12:03:46;;;;;;;8.88;5.95;;;;;;;;;;4992279;28;20046;-76
2023/05/13 12:06:12;;;;;;;11.13;6.55;;;;;;;;;;4979091;28;20034;-76
2023/05/13 12:08:44;;;;;;;8.70;6.15;;;;;;;;;;4977185;28;20084;-75
2023/05/13 12:11:12;;;;;;;7.38;5.15;;;;;;;;;;4977751;28;20150;-75
2023/05/13 12:13:39;;;;;;;8.27;5.25;;;;;;;;;;4979850;28;20523;-75
2023/05/13 12:16:05;;;;;;;11.15;6.28;;;;;;;;;;4979836;28;20038;-75
2023/05/13 12:18:32;;;;;;;10.70;6.53;;;;;;;;;;4989451;28;20471;-75
2023/05/13 12:20:58;;;;;;;9.70;5.93;;;;;;;;;;4994360;28;20169;-75
2023/05/13 12:23:23;;;;;;;9.55;6.22;;;;;;;;;;4993113;28;20497;-76
2023/05/13 12:25:52;;;;;;;8.82;6.47;;;;;;;;;;4992993;28;20042;-75
2023/05/13 12:28:24;;;;;;;9.32;6.55;;;;;;;;;;4994535;28;20029;-75
2023/05/13 12:30:55;;;;;;;9.35;6.57;;;;;;;;;;4984199;28;20046;-76
2023/05/13 12:33:31;;;;;;;8.38;5.72;;;;;;;;;;4993031;28;20029;-75
2023/05/13 12:36:24;;;;;;;9.63;6.30;;;;;;;;;;4992545;28;20487;-76
2023/05/13 12:38:59;;;;;;;11.35;5.32;;;;;;;;;;4977943;28;20042;-75
2023/05/13 12:41:30;;;;;;;9.50;6.55;;;;;;;;;;4980313;28;20090;-75
2023/05/13 12:44:02;;;;;;;13.15;6.22;;;;;;;;;;4978359;28;20534;-76
2023/05/13 12:46:27;;;;;;;10.65;6.88;;;;;;;;;;4979943;28;20050;-75
2023/05/13 12:49:00;;;;;;;7.32;5.30;;;;;;;;;;4977523;28;20077;-75
2023/05/13 12:51:27;;;;;;;7.35;5.68;;;;;;;;;;4980997;28;20105;-75
2023/05/13 12:53:53;;;;;;;10.07;5.80;;;;;;;;;;4992666;28;20046;-75
2023/05/13 12:56:22;;;;;;;9.13;5.82;;;;;;;;;;4984400;28;20030;-76
2023/05/13 12:58:51;;;;;;;11.13;6.13;;;;;;;;;;4985378;28;20063;-76
2023/05/13 13:01:17;;;;;;;8.30;5.63;;;;;;;;;;4981453;28;20101;-75
2023/05/13 13:03:43;;;;;;;8.13;5.80;;;;;;;;;;4980072;28;20467;-75
2023/05/13 13:06:09;;;;;;;12.82;6.43;;;;;;;;;;4992493;28;20512;-75
2023/05/13 13:08:35;;;;;;;8.02;6.28;;;;;;;;;;4992569;28;20395;-75
2023/05/13 13:11:01;;;;;;;7.88;5.43;;;;;;;;;;4993687;28;20030;-75
2023/05/13 13:13:26;;;;;;;8.57;5.70;;;;;;;;;;4992611;28;20034;-75
2023/05/13 13:15:52;;;;;;;8.23;5.53;;;;;;;;;;4993654;28;20042;-75
2023/05/13 13:18:17;;;;;;;7.97;5.07;;;;;;;;;;4992360;28;20038;-75
2023/05/13 13:20:43;;;;;;;9.25;5.82;;;;;;;;;;4993619;28;20034;-75
2023/05/13 13:23:09;;;;;;;8.25;5.63;;;;;;;;;;4993612;28;20074;-75
2023/05/13 13:25:35;;;;;;;9.43;5.45;;;;;;;;;;4993157;28;20391;-75
2023/05/13 13:28:00;;;;;;;10.45;5.78;;;;;;;;;;4993719;28;20042;-75
2023/05/13 13:30:26;;;;;;;9.55;5.90;;;;;;;;;;4993445;28;20049;-75
2023/05/13 13:32:51;;;;;;;10.82;6.32;;;;;;;;;;4993587;28;20061;-75
2023/05/13 13:35:17;;;;;;;9.35;5.10;;;;;;;;;;4993404;28;20042;-75
2023/05/13 13:37:42;;;;;;;8.13;5.35;;;;;;;;;;4993394;28;20541;-76
2023/05/13 13:40:08;;;;;;;12.32;5.95;;;;;;;;;;4993435;28;20090;-75
2023/05/13 13:42:33;;;;;;;9.38;5.35;;;;;;;;;;4985358;28;20046;-75
2023/05/13 13:45:01;;;;;;;9.70;5.03;;;;;;;;;;4978675;28;20039;-75
2023/05/13 13:47:26;;;;;;;12.30;5.65;;;;;;;;;;4993476;28;20032;-75
2023/05/13 13:49:51;;;;;;;8.10;4.97;;;;;;;;;;4993510;28;20125;-76
2023/05/13 13:52:17;;;;;;;7.78;5.15;;;;;;;;;;4993299;28;20034;-75
2023/05/13 13:54:42;;;;;;;7.28;4.20;;;;;;;;;;4992260;28;20475;-75
2023/05/13 13:57:07;;;;;;;8.05;5.07;;;;;;;;;;4995778;28;20049;-75
2023/05/13 13:59:33;;;;;;;12.80;5.28;;;;;;;;;;4993862;28;20356;-76
2023/05/13 14:01:58;;;;;;;7.93;4.78;;;;;;;;;;4990155;28;20041;-76
2023/05/13 14:04:26;;;;;;;8.35;5.40;;;;;;;;;;4984679;28;20038;-77
2023/05/13 14:06:54;;;;;;;7.97;5.28;;;;;;;;;;4980082;28;20035;-76
2023/05/13 14:09:19;;;;;;;9.43;5.72;;;;;;;;;;4980253;28;20042;-75
2023/05/13 14:11:45;;;;;;;7.75;5.72;;;;;;;;;;4984055;28;20038;-75
2023/05/13 14:14:10;;;;;;;7.10;4.30;;;;;;;;;;4990980;28;20046;-75
2023/05/13 14:16:35;;;;;;;9.52;5.82;;;;;;;;;;4991008;28;20034;-75
2023/05/13 14:19:01;;;;;;;7.75;4.75;;;;;;;;;;4993032;28;20096;-76
2023/05/13 14:21:26;;;;;;;8.45;5.35;;;;;;;;;;4995418;28;20153;-75
2023/05/13 14:23:52;;;;;;;8.13;5.70;;;;;;;;;;4996355;28;20442;-75
2023/05/13 14:26:17;;;;;;;10.38;5.32;;;;;;;;;;4996390;28;20081;-75
2023/05/13 14:28:43;;;;;;;10.65;5.80;;;;;;;;;;4996463;28;20394;-75
2023/05/13 14:31:08;;;;;;;10.52;5.50;;;;;;;;;;4995272;28;20038;-75
2023/05/13 14:33:34;;;;;;;5.10;3.85;;;;;;;;;;4989733;28;20046;-75
2023/05/13 14:35:59;;;;;;;8.93;5.10;;;;;;;;;;4979742;28;20094;-75
2023/05/13 14:38:26;;;;;;;9.55;6.15;;;;;;;;;;4979185;28;20031;-75
2023/05/13 14:40:54;;;;;;;9.32;6.05;;;;;;;;;;4977374;28;20038;-75